createdAt,value
2022-10-04T00:01:50.455Z,100.00
2022-10-04T00:09:30.942Z,100.00
2022-10-04T00:17:11.829Z,100.00
2022-10-04T00:25:21.229Z,100.00
2022-10-04T00:33:02.648Z,100.00
2022-10-04T00:40:46.515Z,100.00
2022-10-04T00:48:34.593Z,100.00
2022-10-04T00:56:13.107Z,100.00
2022-10-04T01:03:47.950Z,100.00
2022-10-04T01:11:28.143Z,100.00
2022-10-04T01:19:29.666Z,100.00
2022-10-04T01:27:06.014Z,100.00
2022-10-04T01:34:41.998Z,100.00
2022-10-04T01:42:22.631Z,100.00
2022-10-04T01:49:59.936Z,100.00
2022-10-04T01:57:39.411Z,100.00
2022-10-04T02:05:16.871Z,100.00
2022-10-04T02:12:55.331Z,100.00
2022-10-04T02:20:29.309Z,100.00
2022-10-04T02:28:05.159Z,100.00
2022-10-04T02:35:45.826Z,100.00
2022-10-04T02:43:26.132Z,100.00
2022-10-04T02:51:07.807Z,100.00
2022-10-04T02:58:43.908Z,100.00
2022-10-04T03:06:20.923Z,100.00
2022-10-04T03:14:00.179Z,100.00
2022-10-04T03:21:35.050Z,100.00
2022-10-04T03:29:12.735Z,100.00
2022-10-04T03:36:48.176Z,100.00
2022-10-04T03:44:26.852Z,100.00
2022-10-04T03:52:02.112Z,100.00
2022-10-04T03:59:37.591Z,100.00
2022-10-04T04:07:15.845Z,100.00
2022-10-04T04:14:53.233Z,100.00
2022-10-04T04:22:31.319Z,100.00
2022-10-04T04:30:09.296Z,100.00
2022-10-04T04:37:43.053Z,100.00
2022-10-04T04:45:22.819Z,100.00
2022-10-04T04:53:01.643Z,100.00
2022-10-04T05:00:39.407Z,100.00
2022-10-04T05:08:17.280Z,100.00
2022-10-04T05:15:55.972Z,100.00
2022-10-04T05:23:29.831Z,100.00
2022-10-04T05:31:21.565Z,100.00
2022-10-04T05:39:03.800Z,100.00
2022-10-04T05:46:43.889Z,100.00
2022-10-04T05:54:22.315Z,100.00
2022-10-04T06:02:06.618Z,100.00
2022-10-04T06:10:03.300Z,100.00
2022-10-04T06:17:57.603Z,100.00
2022-10-04T06:25:37.971Z,100.00
2022-10-04T06:33:30.472Z,100.00
2022-10-04T06:41:43.392Z,100.00
2022-10-04T06:49:32.150Z,100.00
2022-10-04T06:57:37.101Z,100.00
2022-10-04T07:05:30.178Z,100.00
2022-10-04T07:13:29.353Z,100.00
2022-10-04T07:21:09.678Z,100.00
2022-10-04T07:29:03.371Z,100.00
2022-10-04T07:36:46.823Z,100.00
2022-10-04T07:44:30.574Z,100.00
2022-10-04T07:52:25.946Z,100.00
2022-10-04T08:00:05.720Z,100.00
2022-10-04T08:07:54.757Z,100.00
2022-10-04T08:15:38.057Z,100.00
2022-10-04T08:23:42.119Z,100.00
2022-10-04T08:31:28.785Z,100.00
2022-10-04T08:39:17.988Z,100.00
2022-10-04T08:47:28.786Z,100.00
2022-10-04T08:55:50.419Z,100.00
2022-10-04T09:04:05.386Z,100.00
2022-10-04T09:11:52.128Z,100.00
2022-10-04T09:19:44.353Z,100.00
2022-10-04T09:27:54.336Z,100.00
2022-10-04T09:35:51.427Z,100.00
2022-10-04T09:43:51.445Z,100.00
2022-10-04T09:51:45.271Z,100.00
2022-10-04T09:59:58.494Z,100.00
2022-10-04T10:07:46.540Z,100.00
2022-10-04T10:15:29.952Z,100.00
2022-10-04T10:23:38.930Z,100.00
2022-10-04T10:31:31.142Z,100.00
2022-10-04T10:39:34.358Z,100.00
2022-10-04T10:47:26.202Z,100.00
2022-10-04T10:55:25.398Z,100.00
2022-10-04T11:03:25.458Z,100.00
2022-10-04T11:11:17.846Z,100.00
2022-10-04T11:19:23.358Z,100.00
2022-10-04T11:27:28.662Z,100.00
2022-10-04T11:35:47.470Z,99.01
2022-10-04T11:43:53.462Z,97.30
2022-10-04T11:52:02.297Z,99.74
2022-10-04T11:59:50.991Z,96.58
2022-10-04T12:07:34.625Z,94.41
2022-10-04T12:15:34.862Z,94.69
2022-10-04T12:23:31.032Z,91.05
2022-10-04T12:31:23.204Z,85.23
2022-10-04T12:39:09.526Z,87.67
2022-10-04T12:46:58.060Z,87.11
2022-10-04T12:54:38.878Z,86.88
2022-10-04T13:02:33.473Z,86.23
2022-10-04T13:10:31.123Z,84.24
2022-10-04T13:18:19.010Z,85.66
2022-10-04T13:26:08.209Z,86.74
2022-10-04T13:33:51.441Z,85.09
2022-10-04T13:41:40.970Z,82.41
2022-10-04T13:49:30.818Z,81.05
2022-10-04T13:57:19.247Z,78.42
2022-10-04T14:05:34.635Z,77.86
2022-10-04T14:13:45.264Z,78.88
2022-10-04T14:21:54.037Z,79.70
2022-10-04T14:30:06.216Z,79.80
2022-10-04T14:38:26.648Z,79.07
2022-10-04T14:46:16.865Z,79.35
2022-10-04T14:54:01.426Z,79.62
2022-10-04T15:01:40.247Z,78.49
2022-10-04T15:09:28.321Z,80.05
2022-10-04T15:17:04.730Z,80.87
2022-10-04T15:24:51.189Z,81.99
2022-10-04T15:32:36.210Z,81.92
2022-10-04T15:40:27.751Z,80.28
2022-10-04T15:48:11.680Z,78.95
2022-10-04T15:56:02.956Z,81.29
2022-10-04T16:03:47.208Z,82.58
2022-10-04T16:11:47.097Z,84.33
2022-10-04T16:19:33.803Z,89.15
2022-10-04T16:27:24.298Z,91.71
2022-10-04T16:35:01.396Z,93.03
2022-10-04T16:42:48.609Z,95.85
2022-10-04T16:50:54.430Z,98.82
2022-10-04T17:06:37.828Z,100.00
2022-10-04T17:14:36.207Z,100.00
2022-10-04T17:22:24.510Z,100.00
2022-10-04T17:30:12.944Z,100.00
2022-10-04T17:37:59.925Z,100.00
2022-10-04T17:45:48.494Z,100.00
2022-10-04T17:53:47.142Z,100.00
2022-10-04T18:01:30.087Z,100.00
2022-10-04T18:09:17.181Z,100.00
2022-10-04T18:16:57.616Z,100.00
2022-10-04T18:24:32.945Z,100.00
2022-10-04T18:32:33.342Z,100.00
2022-10-04T18:40:17.864Z,100.00
2022-10-04T18:47:52.687Z,100.00
2022-10-04T18:55:38.961Z,100.00
2022-10-04T19:03:25.276Z,100.00
2022-10-04T19:11:05.004Z,100.00
2022-10-04T19:18:48.271Z,100.00
2022-10-04T19:26:33.021Z,100.00
2022-10-04T19:34:13.590Z,100.00
2022-10-04T19:41:57.611Z,100.00
2022-10-04T19:49:44.083Z,100.00
2022-10-04T19:57:29.437Z,100.00
2022-10-04T20:05:02.959Z,100.00
2022-10-04T20:12:40.273Z,100.00
2022-10-04T20:20:16.456Z,100.00
2022-10-04T20:28:06.527Z,100.00
2022-10-04T20:36:09.154Z,100.00
2022-10-04T20:43:56.160Z,100.00
2022-10-04T20:51:33.233Z,100.00
2022-10-04T20:59:16.702Z,100.00
2022-10-04T21:06:53.476Z,100.00
2022-10-04T21:14:29.882Z,100.00
2022-10-04T21:22:05.317Z,100.00
2022-10-04T21:29:40.809Z,100.00
2022-10-04T21:37:14.561Z,100.00
2022-10-04T21:44:49.822Z,100.00
2022-10-04T21:52:23.516Z,100.00
2022-10-04T21:59:58.457Z,100.00
2022-10-04T22:07:32.211Z,100.00
2022-10-04T22:15:08.143Z,100.00
2022-10-04T22:22:41.902Z,100.00
2022-10-04T22:30:23.728Z,100.00
2022-10-04T22:37:58.038Z,100.00
2022-10-04T22:45:33.703Z,100.00
2022-10-04T22:53:13.207Z,100.00
2022-10-04T23:00:48.899Z,100.00
2022-10-04T23:08:22.723Z,100.00
2022-10-04T23:16:01.182Z,100.00
2022-10-04T23:23:34.918Z,100.00
2022-10-04T23:31:17.821Z,100.00
2022-10-04T23:38:56.740Z,100.00
2022-10-04T23:46:32.313Z,100.00
2022-10-04T23:54:07.280Z,100.00
